sensor_id;sensor_type;location;lat;lon;timestamp;P1;durP1;ratioP1;P2;durP2;ratioP2
58681;SDS011;44460;40.162;18.294;2022-10-30T00:01:51;26.83;;;15.65;;
58681;SDS011;44460;40.162;18.294;2022-10-30T00:04:16;32.60;;;16.00;;
58681;SDS011;44460;40.162;18.294;2022-10-30T00:06:42;32.47;;;16.08;;
58681;SDS011;44460;40.162;18.294;2022-10-30T00:09:07;31.50;;;16.85;;
58681;SDS011;44460;40.162;18.294;2022-10-30T00:11:32;27.58;;;16.95;;
58681;SDS011;44460;40.162;18.294;2022-10-30T00:13:58;27.15;;;16.88;;
58681;SDS011;44460;40.162;18.294;2022-10-30T00:16:23;27.50;;;17.23;;
58681;SDS011;44460;40.162;18.294;2022-10-30T00:18:49;26.70;;;16.85;;
58681;SDS011;44460;40.162;18.294;2022-10-30T00:21:14;26.98;;;16.10;;
58681;SDS011;44460;40.162;18.294;2022-10-30T00:23:44;24.50;;;16.00;;
58681;SDS011;44460;40.162;18.294;2022-10-30T00:26:10;30.98;;;17.70;;
58681;SDS011;44460;40.162;18.294;2022-10-30T00:28:36;24.40;;;16.90;;
58681;SDS011;44460;40.162;18.294;2022-10-30T00:31:02;25.77;;;16.55;;
58681;SDS011;44460;40.162;18.294;2022-10-30T00:33:28;24.13;;;16.88;;
58681;SDS011;44460;40.162;18.294;2022-10-30T00:35:53;27.70;;;17.13;;
58681;SDS011;44460;40.162;18.294;2022-10-30T00:38:19;26.10;;;15.98;;
58681;SDS011;44460;40.162;18.294;2022-10-30T00:40:46;27.75;;;17.67;;
58681;SDS011;44460;40.162;18.294;2022-10-30T00:45:57;26.35;;;16.17;;
58681;SDS011;44460;40.162;18.294;2022-10-30T00:48:23;29.52;;;15.82;;
58681;SDS011;44460;40.162;18.294;2022-10-30T00:50:50;27.55;;;16.48;;
58681;SDS011;44460;40.162;18.294;2022-10-30T00:53:15;27.20;;;16.58;;
58681;SDS011;44460;40.162;18.294;2022-10-30T00:55:43;28.35;;;17.90;;
58681;SDS011;44460;40.162;18.294;2022-10-30T00:58:11;26.58;;;16.88;;
58681;SDS011;44460;40.162;18.294;2022-10-30T01:00:38;30.23;;;17.30;;
58681;SDS011;44460;40.162;18.294;2022-10-30T01:03:04;33.28;;;16.65;;
58681;SDS011;44460;40.162;18.294;2022-10-30T01:05:30;25.85;;;17.08;;
58681;SDS011;44460;40.162;18.294;2022-10-30T01:07:56;26.92;;;16.25;;
58681;SDS011;44460;40.162;18.294;2022-10-30T01:10:22;31.67;;;17.75;;
58681;SDS011;44460;40.162;18.294;2022-10-30T01:12:47;32.78;;;16.65;;
58681;SDS011;44460;40.162;18.294;2022-10-30T01:15:14;29.67;;;17.67;;
58681;SDS011;44460;40.162;18.294;2022-10-30T01:23:05;32.97;;;18.77;;
58681;SDS011;44460;40.162;18.294;2022-10-30T01:25:37;37.28;;;18.52;;
58681;SDS011;44460;40.162;18.294;2022-10-30T01:35:45;35.53;;;20.58;;
58681;SDS011;44460;40.162;18.294;2022-10-30T01:38:14;34.45;;;19.75;;
58681;SDS011;44460;40.162;18.294;2022-10-30T01:40:42;35.17;;;18.05;;
58681;SDS011;44460;40.162;18.294;2022-10-30T01:43:09;28.92;;;19.20;;
58681;SDS011;44460;40.162;18.294;2022-10-30T01:48:20;35.85;;;21.15;;
58681;SDS011;44460;40.162;18.294;2022-10-30T01:55:56;35.70;;;20.80;;
58681;SDS011;44460;40.162;18.294;2022-10-30T01:58:36;34.85;;;21.50;;
58681;SDS011;44460;40.162;18.294;2022-10-30T02:01:04;37.83;;;20.42;;
58681;SDS011;44460;40.162;18.294;2022-10-30T02:03:31;35.53;;;20.48;;
58681;SDS011;44460;40.162;18.294;2022-10-30T02:05:56;33.85;;;21.08;;
58681;SDS011;44460;40.162;18.294;2022-10-30T02:08:22;29.08;;;19.73;;
58681;SDS011;44460;40.162;18.294;2022-10-30T02:10:50;33.33;;;20.23;;
58681;SDS011;44460;40.162;18.294;2022-10-30T02:13:17;31.15;;;20.25;;
58681;SDS011;44460;40.162;18.294;2022-10-30T02:15:42;28.02;;;19.48;;
58681;SDS011;44460;40.162;18.294;2022-10-30T02:18:08;35.20;;;21.05;;
58681;SDS011;44460;40.162;18.294;2022-10-30T02:20:34;33.05;;;19.08;;
58681;SDS011;44460;40.162;18.294;2022-10-30T02:23:01;28.27;;;19.58;;
58681;SDS011;44460;40.162;18.294;2022-10-30T02:25:31;26.67;;;18.25;;
58681;SDS011;44460;40.162;18.294;2022-10-30T02:27:57;26.90;;;17.80;;
58681;SDS011;44460;40.162;18.294;2022-10-30T02:30:25;31.55;;;18.50;;
58681;SDS011;44460;40.162;18.294;2022-10-30T02:32:51;34.83;;;16.65;;
58681;SDS011;44460;40.162;18.294;2022-10-30T02:35:17;29.05;;;16.98;;
58681;SDS011;44460;40.162;18.294;2022-10-30T02:37:43;32.75;;;17.30;;
58681;SDS011;44460;40.162;18.294;2022-10-30T02:40:08;29.67;;;16.65;;
58681;SDS011;44460;40.162;18.294;2022-10-30T02:42:34;25.63;;;16.55;;
58681;SDS011;44460;40.162;18.294;2022-10-30T02:44:59;27.80;;;17.00;;
58681;SDS011;44460;40.162;18.294;2022-10-30T02:47:26;27.92;;;17.08;;
58681;SDS011;44460;40.162;18.294;2022-10-30T02:49:52;25.90;;;15.53;;
58681;SDS011;44460;40.162;18.294;2022-10-30T02:52:18;33.65;;;17.38;;
58681;SDS011;44460;40.162;18.294;2022-10-30T02:54:43;24.00;;;16.15;;
58681;SDS011;44460;40.162;18.294;2022-10-30T02:57:09;33.70;;;16.85;;
58681;SDS011;44460;40.162;18.294;2022-10-30T02:59:36;29.98;;;15.73;;
58681;SDS011;44460;40.162;18.294;2022-10-30T03:02:01;26.10;;;15.25;;
58681;SDS011;44460;40.162;18.294;2022-10-30T03:04:27;26.60;;;16.42;;
58681;SDS011;44460;40.162;18.294;2022-10-30T03:06:53;34.13;;;17.70;;
58681;SDS011;44460;40.162;18.294;2022-10-30T03:09:18;28.75;;;19.88;;
58681;SDS011;44460;40.162;18.294;2022-10-30T03:11:44;31.40;;;19.40;;
58681;SDS011;44460;40.162;18.294;2022-10-30T03:14:09;32.55;;;21.27;;
58681;SDS011;44460;40.162;18.294;2022-10-30T03:16:36;37.40;;;20.67;;
58681;SDS011;44460;40.162;18.294;2022-10-30T03:19:01;32.08;;;21.30;;
58681;SDS011;44460;40.162;18.294;2022-10-30T03:21:27;35.25;;;21.55;;
58681;SDS011;44460;40.162;18.294;2022-10-30T03:23:53;41.58;;;22.13;;
58681;SDS011;44460;40.162;18.294;2022-10-30T03:26:19;31.08;;;20.77;;
58681;SDS011;44460;40.162;18.294;2022-10-30T03:28:50;33.58;;;20.40;;
58681;SDS011;44460;40.162;18.294;2022-10-30T03:31:16;33.28;;;19.83;;
58681;SDS011;44460;40.162;18.294;2022-10-30T03:33:42;31.92;;;19.48;;
58681;SDS011;44460;40.162;18.294;2022-10-30T03:36:09;28.85;;;18.63;;
58681;SDS011;44460;40.162;18.294;2022-10-30T03:38:34;35.35;;;19.95;;
58681;SDS011;44460;40.162;18.294;2022-10-30T03:41:01;29.25;;;18.42;;
58681;SDS011;44460;40.162;18.294;2022-10-30T03:43:26;29.85;;;19.48;;
58681;SDS011;44460;40.162;18.294;2022-10-30T03:45:53;33.30;;;20.42;;
58681;SDS011;44460;40.162;18.294;2022-10-30T03:48:19;32.20;;;20.10;;
58681;SDS011;44460;40.162;18.294;2022-10-30T03:50:45;37.63;;;20.60;;
58681;SDS011;44460;40.162;18.294;2022-10-30T03:53:11;35.83;;;20.25;;
58681;SDS011;44460;40.162;18.294;2022-10-30T03:55:38;36.15;;;21.58;;
58681;SDS011;44460;40.162;18.294;2022-10-30T03:58:04;40.70;;;22.05;;
58681;SDS011;44460;40.162;18.294;2022-10-30T04:00:30;37.80;;;21.70;;
58681;SDS011;44460;40.162;18.294;2022-10-30T04:02:57;35.72;;;21.63;;
58681;SDS011;44460;40.162;18.294;2022-10-30T04:05:24;37.60;;;22.02;;
58681;SDS011;44460;40.162;18.294;2022-10-30T04:07:59;37.72;;;21.65;;
58681;SDS011;44460;40.162;18.294;2022-10-30T04:10:27;41.72;;;21.90;;
58681;SDS011;44460;40.162;18.294;2022-10-30T04:13:04;38.50;;;22.77;;
58681;SDS011;44460;40.162;18.294;2022-10-30T04:15:31;32.47;;;22.25;;
58681;SDS011;44460;40.162;18.294;2022-10-30T04:17:56;38.97;;;22.30;;
58681;SDS011;44460;40.162;18.294;2022-10-30T04:20:22;39.35;;;23.00;;
58681;SDS011;44460;40.162;18.294;2022-10-30T04:22:48;36.67;;;23.27;;
58681;SDS011;44460;40.162;18.294;2022-10-30T04:25:19;41.40;;;23.13;;
58681;SDS011;44460;40.162;18.294;2022-10-30T04:27:47;36.63;;;22.90;;
58681;SDS011;44460;40.162;18.294;2022-10-30T04:30:13;37.58;;;22.67;;
58681;SDS011;44460;40.162;18.294;2022-10-30T04:32:46;44.35;;;23.20;;
58681;SDS011;44460;40.162;18.294;2022-10-30T04:35:11;39.13;;;23.30;;
58681;SDS011;44460;40.162;18.294;2022-10-30T04:37:37;48.10;;;23.17;;
58681;SDS011;44460;40.162;18.294;2022-10-30T04:40:02;35.72;;;22.35;;
58681;SDS011;44460;40.162;18.294;2022-10-30T04:42:35;38.58;;;23.15;;
58681;SDS011;44460;40.162;18.294;2022-10-30T04:45:01;37.03;;;21.23;;
58681;SDS011;44460;40.162;18.294;2022-10-30T04:47:27;39.88;;;22.10;;
58681;SDS011;44460;40.162;18.294;2022-10-30T04:49:53;39.72;;;21.88;;
58681;SDS011;44460;40.162;18.294;2022-10-30T04:52:18;33.00;;;21.55;;
58681;SDS011;44460;40.162;18.294;2022-10-30T04:54:44;35.63;;;22.35;;
58681;SDS011;44460;40.162;18.294;2022-10-30T04:57:10;46.60;;;21.70;;
58681;SDS011;44460;40.162;18.294;2022-10-30T04:59:36;41.10;;;22.02;;
58681;SDS011;44460;40.162;18.294;2022-10-30T05:02:01;39.95;;;23.10;;
58681;SDS011;44460;40.162;18.294;2022-10-30T05:04:27;35.47;;;23.02;;
58681;SDS011;44460;40.162;18.294;2022-10-30T05:06:52;44.25;;;22.00;;
58681;SDS011;44460;40.162;18.294;2022-10-30T05:09:17;42.78;;;24.05;;
58681;SDS011;44460;40.162;18.294;2022-10-30T05:11:43;43.13;;;24.05;;
58681;SDS011;44460;40.162;18.294;2022-10-30T05:14:08;45.63;;;22.13;;
58681;SDS011;44460;40.162;18.294;2022-10-30T05:16:35;46.28;;;22.83;;
58681;SDS011;44460;40.162;18.294;2022-10-30T05:19:02;40.83;;;22.92;;
58681;SDS011;44460;40.162;18.294;2022-10-30T05:21:28;36.17;;;24.05;;
58681;SDS011;44460;40.162;18.294;2022-10-30T05:23:54;39.88;;;24.25;;
58681;SDS011;44460;40.162;18.294;2022-10-30T05:26:19;45.97;;;24.77;;
58681;SDS011;44460;40.162;18.294;2022-10-30T05:28:45;43.95;;;23.08;;
58681;SDS011;44460;40.162;18.294;2022-10-30T05:31:11;35.70;;;22.77;;
58681;SDS011;44460;40.162;18.294;2022-10-30T05:33:57;40.67;;;23.48;;
58681;SDS011;44460;40.162;18.294;2022-10-30T05:36:23;42.30;;;24.05;;
58681;SDS011;44460;40.162;18.294;2022-10-30T05:38:49;48.90;;;24.48;;
58681;SDS011;44460;40.162;18.294;2022-10-30T05:41:25;44.05;;;23.38;;
58681;SDS011;44460;40.162;18.294;2022-10-30T05:43:51;50.17;;;24.10;;
58681;SDS011;44460;40.162;18.294;2022-10-30T05:46:17;39.47;;;23.75;;
58681;SDS011;44460;40.162;18.294;2022-10-30T05:48:42;41.05;;;23.17;;
58681;SDS011;44460;40.162;18.294;2022-10-30T05:51:08;36.13;;;22.52;;
58681;SDS011;44460;40.162;18.294;2022-10-30T05:53:35;42.67;;;23.02;;
58681;SDS011;44460;40.162;18.294;2022-10-30T05:56:03;38.83;;;22.80;;
58681;SDS011;44460;40.162;18.294;2022-10-30T05:58:32;44.35;;;23.00;;
58681;SDS011;44460;40.162;18.294;2022-10-30T06:03:48;38.72;;;21.95;;
58681;SDS011;44460;40.162;18.294;2022-10-30T06:06:13;38.30;;;20.98;;
58681;SDS011;44460;40.162;18.294;2022-10-30T06:08:38;45.08;;;22.55;;
58681;SDS011;44460;40.162;18.294;2022-10-30T06:11:24;40.25;;;20.48;;
58681;SDS011;44460;40.162;18.294;2022-10-30T06:13:53;38.65;;;21.30;;
58681;SDS011;44460;40.162;18.294;2022-10-30T06:16:24;31.42;;;19.35;;
58681;SDS011;44460;40.162;18.294;2022-10-30T06:19:04;36.50;;;19.83;;
58681;SDS011;44460;40.162;18.294;2022-10-30T06:21:31;39.00;;;19.10;;
58681;SDS011;44460;40.162;18.294;2022-10-30T06:24:09;30.75;;;17.73;;
58681;SDS011;44460;40.162;18.294;2022-10-30T06:26:59;32.85;;;16.73;;
58681;SDS011;44460;40.162;18.294;2022-10-30T06:29:24;35.35;;;17.25;;
58681;SDS011;44460;40.162;18.294;2022-10-30T06:31:50;33.97;;;17.65;;
58681;SDS011;44460;40.162;18.294;2022-10-30T06:34:17;25.65;;;14.98;;
58681;SDS011;44460;40.162;18.294;2022-10-30T06:36:42;31.88;;;16.55;;
58681;SDS011;44460;40.162;18.294;2022-10-30T06:39:08;32.38;;;15.73;;
58681;SDS011;44460;40.162;18.294;2022-10-30T06:41:43;28.52;;;16.40;;
58681;SDS011;44460;40.162;18.294;2022-10-30T06:44:24;27.83;;;15.52;;
58681;SDS011;44460;40.162;18.294;2022-10-30T06:46:51;29.27;;;14.50;;
58681;SDS011;44460;40.162;18.294;2022-10-30T06:49:16;28.10;;;14.43;;
58681;SDS011;44460;40.162;18.294;2022-10-30T06:51:42;30.17;;;13.45;;
58681;SDS011;44460;40.162;18.294;2022-10-30T06:54:07;37.20;;;14.00;;
58681;SDS011;44460;40.162;18.294;2022-10-30T06:56:38;26.50;;;15.40;;
58681;SDS011;44460;40.162;18.294;2022-10-30T06:59:27;25.67;;;15.15;;
58681;SDS011;44460;40.162;18.294;2022-10-30T07:02:09;37.88;;;15.05;;
58681;SDS011;44460;40.162;18.294;2022-10-30T07:04:43;32.80;;;14.57;;
58681;SDS011;44460;40.162;18.294;2022-10-30T07:07:10;31.83;;;14.82;;
58681;SDS011;44460;40.162;18.294;2022-10-30T07:09:36;28.27;;;14.02;;
58681;SDS011;44460;40.162;18.294;2022-10-30T07:12:01;27.88;;;12.80;;
58681;SDS011;44460;40.162;18.294;2022-10-30T07:14:38;29.33;;;11.80;;
58681;SDS011;44460;40.162;18.294;2022-10-30T07:17:15;28.50;;;12.00;;
58681;SDS011;44460;40.162;18.294;2022-10-30T07:19:46;29.55;;;11.73;;
58681;SDS011;44460;40.162;18.294;2022-10-30T07:22:12;23.88;;;10.57;;
58681;SDS011;44460;40.162;18.294;2022-10-30T07:24:41;26.00;;;10.88;;
58681;SDS011;44460;40.162;18.294;2022-10-30T07:27:18;24.08;;;10.38;;
58681;SDS011;44460;40.162;18.294;2022-10-30T07:30:00;25.52;;;10.52;;
58681;SDS011;44460;40.162;18.294;2022-10-30T07:32:33;18.50;;;10.15;;
58681;SDS011;44460;40.162;18.294;2022-10-30T07:35:31;26.33;;;9.98;;
58681;SDS011;44460;40.162;18.294;2022-10-30T07:38:22;18.98;;;10.30;;
58681;SDS011;44460;40.162;18.294;2022-10-30T07:40:54;21.50;;;9.52;;
58681;SDS011;44460;40.162;18.294;2022-10-30T07:43:39;30.75;;;10.50;;
58681;SDS011;44460;40.162;18.294;2022-10-30T07:46:23;18.33;;;9.48;;
58681;SDS011;44460;40.162;18.294;2022-10-30T07:49:07;21.70;;;8.98;;
58681;SDS011;44460;40.162;18.294;2022-10-30T07:51:51;21.50;;;10.02;;
58681;SDS011;44460;40.162;18.294;2022-10-30T07:54:17;20.48;;;10.45;;
58681;SDS011;44460;40.162;18.294;2022-10-30T07:56:42;23.77;;;10.15;;
58681;SDS011;44460;40.162;18.294;2022-10-30T07:59:26;20.98;;;11.13;;
58681;SDS011;44460;40.162;18.294;2022-10-30T08:02:17;20.77;;;10.02;;
58681;SDS011;44460;40.162;18.294;2022-10-30T08:05:06;22.63;;;11.32;;
58681;SDS011;44460;40.162;18.294;2022-10-30T08:07:47;22.70;;;9.05;;
58681;SDS011;44460;40.162;18.294;2022-10-30T08:10:13;19.70;;;8.95;;
58681;SDS011;44460;40.162;18.294;2022-10-30T08:12:39;23.80;;;9.25;;
58681;SDS011;44460;40.162;18.294;2022-10-30T08:15:06;22.57;;;9.07;;
58681;SDS011;44460;40.162;18.294;2022-10-30T08:17:32;20.05;;;8.20;;
58681;SDS011;44460;40.162;18.294;2022-10-30T08:20:00;17.00;;;7.88;;
58681;SDS011;44460;40.162;18.294;2022-10-30T08:22:26;26.80;;;8.23;;
58681;SDS011;44460;40.162;18.294;2022-10-30T08:24:58;20.75;;;8.05;;
58681;SDS011;44460;40.162;18.294;2022-10-30T08:27:23;19.75;;;6.80;;
58681;SDS011;44460;40.162;18.294;2022-10-30T08:29:50;19.60;;;7.72;;
58681;SDS011;44460;40.162;18.294;2022-10-30T08:32:16;17.80;;;7.57;;
58681;SDS011;44460;40.162;18.294;2022-10-30T08:35:12;27.33;;;7.53;;
58681;SDS011;44460;40.162;18.294;2022-10-30T08:37:41;16.52;;;7.00;;
58681;SDS011;44460;40.162;18.294;2022-10-30T08:40:10;21.25;;;8.65;;
58681;SDS011;44460;40.162;18.294;2022-10-30T08:42:48;18.10;;;7.75;;
58681;SDS011;44460;40.162;18.294;2022-10-30T08:45:14;16.13;;;7.30;;
58681;SDS011;44460;40.162;18.294;2022-10-30T08:48:08;22.38;;;8.02;;
58681;SDS011;44460;40.162;18.294;2022-10-30T08:50:37;18.27;;;9.02;;
58681;SDS011;44460;40.162;18.294;2022-10-30T08:53:05;23.80;;;9.40;;
58681;SDS011;44460;40.162;18.294;2022-10-30T08:55:32;24.25;;;10.75;;
58681;SDS011;44460;40.162;18.294;2022-10-30T08:58:01;24.83;;;9.98;;
58681;SDS011;44460;40.162;18.294;2022-10-30T09:00:27;20.45;;;10.18;;
58681;SDS011;44460;40.162;18.294;2022-10-30T09:03:12;22.23;;;9.52;;
58681;SDS011;44460;40.162;18.294;2022-10-30T09:06:00;23.67;;;10.20;;
58681;SDS011;44460;40.162;18.294;2022-10-30T09:08:49;23.23;;;10.65;;
58681;SDS011;44460;40.162;18.294;2022-10-30T09:11:26;23.95;;;10.48;;
58681;SDS011;44460;40.162;18.294;2022-10-30T09:13:52;25.98;;;11.27;;
58681;SDS011;44460;40.162;18.294;2022-10-30T09:16:17;23.83;;;11.20;;
58681;SDS011;44460;40.162;18.294;2022-10-30T09:18:43;22.75;;;10.65;;
58681;SDS011;44460;40.162;18.294;2022-10-30T09:21:09;24.30;;;10.23;;
58681;SDS011;44460;40.162;18.294;2022-10-30T09:23:41;23.98;;;9.82;;
58681;SDS011;44460;40.162;18.294;2022-10-30T09:26:25;28.83;;;10.10;;
58681;SDS011;44460;40.162;18.294;2022-10-30T09:28:57;26.00;;;10.38;;
58681;SDS011;44460;40.162;18.294;2022-10-30T09:31:43;18.52;;;9.15;;
58681;SDS011;44460;40.162;18.294;2022-10-30T09:34:13;22.73;;;11.05;;
58681;SDS011;44460;40.162;18.294;2022-10-30T09:36:41;25.15;;;10.65;;
58681;SDS011;44460;40.162;18.294;2022-10-30T09:39:09;21.42;;;10.45;;
58681;SDS011;44460;40.162;18.294;2022-10-30T09:46:53;26.75;;;11.52;;
58681;SDS011;44460;40.162;18.294;2022-10-30T10:05:03;24.00;;;10.57;;
58681;SDS011;44460;40.162;18.294;2022-10-30T10:07:51;19.17;;;9.45;;
58681;SDS011;44460;40.162;18.294;2022-10-30T10:10:47;28.75;;;10.68;;
58681;SDS011;44460;40.162;18.294;2022-10-30T10:16:11;25.23;;;10.77;;
58681;SDS011;44460;40.162;18.294;2022-10-30T10:18:43;21.90;;;11.18;;
58681;SDS011;44460;40.162;18.294;2022-10-30T10:21:12;21.30;;;10.20;;
58681;SDS011;44460;40.162;18.294;2022-10-30T10:23:49;26.90;;;11.23;;
58681;SDS011;44460;40.162;18.294;2022-10-30T10:31:19;23.42;;;9.18;;
58681;SDS011;44460;40.162;18.294;2022-10-30T10:36:38;28.98;;;10.27;;
58681;SDS011;44460;40.162;18.294;2022-10-30T10:39:12;20.73;;;10.48;;
58681;SDS011;44460;40.162;18.294;2022-10-30T10:41:50;20.77;;;9.35;;
58681;SDS011;44460;40.162;18.294;2022-10-30T10:51:38;21.75;;;9.38;;
58681;SDS011;44460;40.162;18.294;2022-10-30T10:54:14;18.88;;;8.82;;
58681;SDS011;44460;40.162;18.294;2022-10-30T10:56:41;19.27;;;8.25;;
58681;SDS011;44460;40.162;18.294;2022-10-30T11:01:43;19.20;;;8.55;;
58681;SDS011;44460;40.162;18.294;2022-10-30T11:04:12;13.70;;;8.25;;
58681;SDS011;44460;40.162;18.294;2022-10-30T11:06:40;18.63;;;8.90;;
58681;SDS011;44460;40.162;18.294;2022-10-30T11:09:16;23.02;;;9.60;;
58681;SDS011;44460;40.162;18.294;2022-10-30T11:11:44;20.75;;;9.88;;
58681;SDS011;44460;40.162;18.294;2022-10-30T11:14:14;24.85;;;11.57;;
58681;SDS011;44460;40.162;18.294;2022-10-30T11:16:46;19.63;;;9.52;;
58681;SDS011;44460;40.162;18.294;2022-10-30T11:19:14;20.35;;;9.10;;
58681;SDS011;44460;40.162;18.294;2022-10-30T11:21:44;22.33;;;8.63;;
58681;SDS011;44460;40.162;18.294;2022-10-30T11:24:25;16.55;;;7.28;;
58681;SDS011;44460;40.162;18.294;2022-10-30T11:26:50;18.25;;;9.38;;
58681;SDS011;44460;40.162;18.294;2022-10-30T11:29:18;13.27;;;8.45;;
58681;SDS011;44460;40.162;18.294;2022-10-30T11:31:57;17.80;;;7.78;;
58681;SDS011;44460;40.162;18.294;2022-10-30T11:34:32;19.45;;;9.13;;
58681;SDS011;44460;40.162;18.294;2022-10-30T11:36:58;17.48;;;8.32;;
58681;SDS011;44460;40.162;18.294;2022-10-30T11:39:33;18.20;;;8.93;;
58681;SDS011;44460;40.162;18.294;2022-10-30T11:42:06;20.02;;;7.57;;
58681;SDS011;44460;40.162;18.294;2022-10-30T11:44:38;13.57;;;8.10;;
58681;SDS011;44460;40.162;18.294;2022-10-30T11:47:05;18.20;;;8.52;;
58681;SDS011;44460;40.162;18.294;2022-10-30T11:49:36;19.95;;;9.73;;
58681;SDS011;44460;40.162;18.294;2022-10-30T11:52:03;15.32;;;9.18;;
58681;SDS011;44460;40.162;18.294;2022-10-30T11:54:33;20.63;;;8.27;;
58681;SDS011;44460;40.162;18.294;2022-10-30T11:56:59;20.25;;;8.65;;
58681;SDS011;44460;40.162;18.294;2022-10-30T11:59:24;13.98;;;7.70;;
58681;SDS011;44460;40.162;18.294;2022-10-30T12:01:57;15.40;;;7.47;;
58681;SDS011;44460;40.162;18.294;2022-10-30T12:04:23;24.23;;;9.82;;
58681;SDS011;44460;40.162;18.294;2022-10-30T12:09:43;18.98;;;7.32;;
58681;SDS011;44460;40.162;18.294;2022-10-30T12:14:43;13.68;;;7.95;;
58681;SDS011;44460;40.162;18.294;2022-10-30T12:17:09;16.63;;;8.73;;
58681;SDS011;44460;40.162;18.294;2022-10-30T12:19:38;19.27;;;7.88;;
58681;SDS011;44460;40.162;18.294;2022-10-30T12:22:09;14.93;;;7.95;;
58681;SDS011;44460;40.162;18.294;2022-10-30T12:24:35;15.05;;;7.45;;
58681;SDS011;44460;40.162;18.294;2022-10-30T12:27:02;12.63;;;6.95;;
58681;SDS011;44460;40.162;18.294;2022-10-30T12:29:57;14.73;;;7.27;;
58681;SDS011;44460;40.162;18.294;2022-10-30T12:32:16;15.60;;;8.05;;
58681;SDS011;44460;40.162;18.294;2022-10-30T12:34:47;13.68;;;6.85;;
58681;SDS011;44460;40.162;18.294;2022-10-30T12:37:15;18.20;;;7.22;;
58681;SDS011;44460;40.162;18.294;2022-10-30T12:39:44;23.13;;;6.75;;
58681;SDS011;44460;40.162;18.294;2022-10-30T12:42:12;18.38;;;7.88;;
58681;SDS011;44460;40.162;18.294;2022-10-30T12:44:40;13.73;;;5.68;;
58681;SDS011;44460;40.162;18.294;2022-10-30T12:47:21;23.67;;;7.43;;
58681;SDS011;44460;40.162;18.294;2022-10-30T12:49:49;15.77;;;6.80;;
58681;SDS011;44460;40.162;18.294;2022-10-30T12:57:13;17.75;;;7.50;;
58681;SDS011;44460;40.162;18.294;2022-10-30T13:04:37;15.75;;;7.15;;
58681;SDS011;44460;40.162;18.294;2022-10-30T13:07:12;17.85;;;7.13;;
58681;SDS011;44460;40.162;18.294;2022-10-30T13:12:07;20.38;;;6.63;;
58681;SDS011;44460;40.162;18.294;2022-10-30T13:14:39;16.63;;;6.50;;
58681;SDS011;44460;40.162;18.294;2022-10-30T13:17:09;14.18;;;8.48;;
58681;SDS011;44460;40.162;18.294;2022-10-30T13:19:35;18.48;;;8.18;;
58681;SDS011;44460;40.162;18.294;2022-10-30T13:22:03;20.02;;;8.30;;
58681;SDS011;44460;40.162;18.294;2022-10-30T13:27:05;13.13;;;8.10;;
58681;SDS011;44460;40.162;18.294;2022-10-30T13:29:44;25.13;;;8.32;;
58681;SDS011;44460;40.162;18.294;2022-10-30T13:37:33;20.50;;;9.15;;
58681;SDS011;44460;40.162;18.294;2022-10-30T13:47:58;16.55;;;7.82;;
58681;SDS011;44460;40.162;18.294;2022-10-30T13:50:42;18.00;;;9.02;;
58681;SDS011;44460;40.162;18.294;2022-10-30T13:53:16;15.60;;;8.23;;
58681;SDS011;44460;40.162;18.294;2022-10-30T13:55:44;21.38;;;10.30;;
58681;SDS011;44460;40.162;18.294;2022-10-30T14:01:16;22.55;;;9.60;;
58681;SDS011;44460;40.162;18.294;2022-10-30T14:08:52;24.30;;;8.85;;
58681;SDS011;44460;40.162;18.294;2022-10-30T14:11:18;21.65;;;9.55;;
58681;SDS011;44460;40.162;18.294;2022-10-30T14:13:56;22.08;;;9.88;;
58681;SDS011;44460;40.162;18.294;2022-10-30T14:19:03;18.03;;;9.60;;
58681;SDS011;44460;40.162;18.294;2022-10-30T14:21:38;15.30;;;9.18;;
58681;SDS011;44460;40.162;18.294;2022-10-30T14:24:14;21.35;;;9.32;;
58681;SDS011;44460;40.162;18.294;2022-10-30T14:26:44;22.00;;;9.60;;
58681;SDS011;44460;40.162;18.294;2022-10-30T14:31:54;17.25;;;7.32;;
58681;SDS011;44460;40.162;18.294;2022-10-30T14:37:03;18.88;;;7.68;;
58681;SDS011;44460;40.162;18.294;2022-10-30T14:39:29;12.57;;;7.47;;
58681;SDS011;44460;40.162;18.294;2022-10-30T14:49:49;16.83;;;8.43;;
58681;SDS011;44460;40.162;18.294;2022-10-30T14:57:43;14.70;;;8.20;;
58681;SDS011;44460;40.162;18.294;2022-10-30T15:05:28;21.80;;;9.88;;
58681;SDS011;44460;40.162;18.294;2022-10-30T15:08:40;19.35;;;10.18;;
58681;SDS011;44460;40.162;18.294;2022-10-30T15:11:29;23.52;;;10.40;;
58681;SDS011;44460;40.162;18.294;2022-10-30T15:13:34;22.45;;;11.02;;
58681;SDS011;44460;40.162;18.294;2022-10-30T15:16:01;24.08;;;12.43;;
58681;SDS011;44460;40.162;18.294;2022-10-30T15:18:27;19.17;;;11.52;;
58681;SDS011;44460;40.162;18.294;2022-10-30T15:20:52;21.58;;;11.63;;
58681;SDS011;44460;40.162;18.294;2022-10-30T15:25:45;28.77;;;13.20;;
58681;SDS011;44460;40.162;18.294;2022-10-30T15:28:18;23.35;;;13.40;;
58681;SDS011;44460;40.162;18.294;2022-10-30T15:33:28;30.58;;;15.13;;
58681;SDS011;44460;40.162;18.294;2022-10-30T15:35:59;24.63;;;15.32;;
58681;SDS011;44460;40.162;18.294;2022-10-30T15:38:25;28.15;;;15.45;;
58681;SDS011;44460;40.162;18.294;2022-10-30T15:40:50;28.92;;;16.45;;
58681;SDS011;44460;40.162;18.294;2022-10-30T15:43:20;29.55;;;15.75;;
58681;SDS011;44460;40.162;18.294;2022-10-30T15:45:48;32.05;;;16.40;;
58681;SDS011;44460;40.162;18.294;2022-10-30T15:50:43;34.00;;;19.17;;
58681;SDS011;44460;40.162;18.294;2022-10-30T15:53:16;30.17;;;20.15;;
58681;SDS011;44460;40.162;18.294;2022-10-30T15:55:42;33.45;;;19.85;;
58681;SDS011;44460;40.162;18.294;2022-10-30T15:58:10;30.80;;;18.88;;
58681;SDS011;44460;40.162;18.294;2022-10-30T16:00:38;35.38;;;19.85;;
58681;SDS011;44460;40.162;18.294;2022-10-30T16:03:21;33.38;;;19.50;;
58681;SDS011;44460;40.162;18.294;2022-10-30T16:05:47;34.75;;;20.92;;
58681;SDS011;44460;40.162;18.294;2022-10-30T16:10:41;32.85;;;22.73;;
58681;SDS011;44460;40.162;18.294;2022-10-30T16:13:18;40.35;;;23.25;;
58681;SDS011;44460;40.162;18.294;2022-10-30T16:15:44;41.40;;;23.73;;
58681;SDS011;44460;40.162;18.294;2022-10-30T16:18:15;34.65;;;24.00;;
58681;SDS011;44460;40.162;18.294;2022-10-30T16:20:42;39.03;;;23.13;;
58681;SDS011;44460;40.162;18.294;2022-10-30T16:23:08;42.65;;;23.48;;
58681;SDS011;44460;40.162;18.294;2022-10-30T16:25:34;42.00;;;24.92;;
58681;SDS011;44460;40.162;18.294;2022-10-30T16:28:02;41.00;;;23.83;;
58681;SDS011;44460;40.162;18.294;2022-10-30T16:30:27;37.83;;;23.52;;
58681;SDS011;44460;40.162;18.294;2022-10-30T16:32:56;39.70;;;23.10;;
58681;SDS011;44460;40.162;18.294;2022-10-30T16:35:21;39.75;;;22.67;;
58681;SDS011;44460;40.162;18.294;2022-10-30T16:37:47;42.50;;;23.73;;
58681;SDS011;44460;40.162;18.294;2022-10-30T16:40:15;47.13;;;24.35;;
58681;SDS011;44460;40.162;18.294;2022-10-30T16:42:44;36.58;;;23.92;;
58681;SDS011;44460;40.162;18.294;2022-10-30T16:47:38;42.10;;;22.48;;
58681;SDS011;44460;40.162;18.294;2022-10-30T16:50:09;47.95;;;25.45;;
58681;SDS011;44460;40.162;18.294;2022-10-30T16:55:03;43.80;;;23.25;;
58681;SDS011;44460;40.162;18.294;2022-10-30T16:57:30;46.05;;;25.83;;
58681;SDS011;44460;40.162;18.294;2022-10-30T16:59:56;50.05;;;27.38;;